Anderson, OH (45244)

6:49 PM EDT on September 03, 2015 (GMT -0400)
APRSWXNET | | Change Station
CLOSE
Current Station
Personal Weather Station
Location: Anderson, OH
Elevation: 862 ft
Nearby Weather Stations

Elev 862 ft 39.09 °N, 84.33 °W | Updated 35 minutes ago

Partly Cloudy
Partly Cloudy
84 °F
Feels Like 90 °F
N
1
Wind Variable Wind from NNW
Gusts 2.0 mph

Today
High -- | Low -- °F
--% Chance of Precip.
Yesterday
High -- | Low -- °F
Precip. -- in
7:07 AM 8:05 PM
Waning Gibbous, 66% visible
Pressure 29.92 in
Visibility 10.0 miles
Clouds Few 11000 ft
Heat Index 90 °F
Dew Point 73 °F
Humidity 69%
Rainfall in
Snow Depth Not available.
UV 2 out of 12
Pollen 10.50 out of 12
Air Quality Not available.
Flu Activity Not available.
METAR KLUK 032153Z VRB03KT 10SM FEW110 31/19 A2993 RMK AO2 SLP130 T03110189
Pressure 29.92 in
Visibility 10.0 miles
Clouds Few 11000 ft
Heat Index 90 °F
Dew Point 73 °F
Humidity 69%
Rainfall in
Snow Depth Not available.
UV 2 out of 12
Pollen 10.50 out of 12
Air Quality Not available.
Flu Activity Not available.
METAR KLUK 032153Z VRB03KT 10SM FEW110 31/19 A2993 RMK AO2 SLP130 T03110189

10-Day Weather Forecast

×

Almanac

Astronomy

Sep. 03, 2015 Rise Set
Actual Time
Civil Twilight
Nautical Twilight
Astronomical Twilight
Moon
Length of Visible Light
Length of Day
Tomorrow will be .
, % of the Moon is Illuminated

Today's Extremes

State Highs State Lows

Community

WunderPhotos

Upload Photos

1,852,049 photos uploaded!

WunderBlogs® & News

Nearby

Air Quality

  Air Quality AQ Index Pollutant
Not available.

Snow Depth

Station Depth Elevation

Earthquake Activity

City Distance Mag. Time & Date
Minimum magnitude displayed is 2.5.

Coastal Water Temperatures

Place Temperature

Stations

Nearby Weather Stations

Station Location Temp. Windchill Dew Point Humidity Wind Precip. Elev Updated Type